Список аэропортов
Фактическая погода:

25 июня, 01:00
Температура: +20°C (+20.0*)
Ветер: юго-восточный 2 м/с
Давление: *762 мм
Без существ. явл.
Время (МСК)Темп. СВетерВлажностьДавлениеОблачностьОсадки
21:00+24ЮВ, 1 м/с69%1015 гПаясно
22:00+23В, 1 м/с77%1015 гПаясно
23:00+22В, 1 м/с81%1015 гПаясно
25 июня
00:00+21СВ, 1 м/с82%1015 гПаясно
01:00+20СВ, 1 м/с81%1016 гПаясно
02:00+20СВ, 2 м/с79%1016 гПаясно
03:00+19В, 2 м/с78%1016 гПаясно
04:00+19СВ, 2 м/с82%1016 гПаясно
05:00+20СВ, 1 м/с82%1016 гПаясно
06:00+23СВ, 1 м/с78%1017 гПаясно
07:00+26В, 2 м/с69%1017 гПаясно
08:00+29ЮВ, 2 м/с58%1017 гПаясно
09:00+30ЮВ, 2 м/с46%1017 гПаясно
10:00+31Ю, 3 м/с38%1017 гПамалооблачно
11:00+32ЮВ, 2 м/с36%1016 гПамалооблачно
12:00+32ЮВ, 3 м/с34%1016 гПамалооблачно
13:00+33ЮВ, 3 м/с33%1016 гПаясно
14:00+33ЮВ, 3 м/с32%1016 гПаясно
15:00+33ЮВ, 2 м/с32%1016 гПаясно
16:00+33Ю, 2 м/с32%1016 гПас прояснениями
17:00+32Ю, 2 м/с33%1016 гПаоблачно
18:00+32Ю, 2 м/с33%1015 гПаоблачно
19:00+30Ю, 2 м/с39%1015 гПаоблачно
20:00+28ЮВ, 1 м/с51%1015 гПаоблачно
21:00+26В, 1 м/с57%1016 гПаоблачно
22:00+25В, 1 м/с62%1016 гПаоблачно
23:00+24В, 1 м/с68%1016 гПаоблачно
26 июня
00:00+23В, 1 м/с72%1016 гПаоблачно
01:00+22В, 1 м/с81%1016 гПаоблачно
02:00+21В, 1 м/с90%1016 гПаоблачно
03:00+20В, 1 м/с95%1017 гПас прояснениями
04:00+20СВ, 1 м/с96%1017 гПаясно
05:00+22СВ, 1 м/с86%1017 гПас прояснениями
06:00+24В, 1 м/с81%1017 гПамалооблачно
07:00+28В, 1 м/с60%1017 гПамалооблачно
08:00+30Ю, 1 м/с49%1017 гПаясно
09:00+32ЮЗ, 2 м/с42%1017 гПаоблачно
10:00+33ЮЗ, 2 м/с35%1017 гПас прояснениями
11:00+34ЮЗ, 2 м/с31%1016 гПаясно
12:00+33З, 2 м/с32%1016 гПас прояснениямисл. дождь
13:00+34З, 2 м/с32%1016 гПаоблачнодождь
14:00+32ЮЗ, 3 м/с38%1016 гПаоблачнодождь
15:00+34З, 2 м/с32%1016 гПаоблачно
16:00+33З, 3 м/с32%1016 гПаясно
17:00+31СЗ, 4 м/с42%1016 гПас прояснениямидождь
18:00+32З, 3 м/с39%1016 гПас прояснениями
19:00+30З, 3 м/с44%1016 гПас прояснениями
20:00+29З, 4 м/с54%1016 гПас прояснениями
21:00+27З, 3 м/с64%1016 гПаоблачно